createdAt,value
2023-04-23T00:01:48.047Z,12.30
2023-04-23T00:04:18.959Z,12.30
2023-04-23T00:06:47.473Z,12.30
2023-04-23T00:09:16.754Z,12.30
2023-04-23T00:11:43.403Z,12.30
2023-04-23T00:14:10.500Z,12.20
2023-04-23T00:16:38.125Z,12.20
2023-04-23T00:19:04.857Z,12.20
2023-04-23T00:21:31.703Z,12.30
2023-04-23T00:23:58.256Z,12.20
2023-04-23T00:26:24.809Z,12.20
2023-04-23T00:28:51.364Z,12.20
2023-04-23T00:31:18.042Z,12.20
2023-04-23T00:33:44.728Z,12.20
2023-04-23T00:36:11.281Z,12.20
2023-04-23T00:38:37.918Z,12.20
2023-04-23T00:41:05.004Z,12.10
2023-04-23T00:43:32.101Z,12.10
2023-04-23T00:45:58.668Z,12.10
2023-04-23T00:48:26.024Z,12.10
2023-04-23T00:51:00.688Z,12.10
2023-04-23T00:53:27.373Z,12.10
2023-04-23T00:55:54.489Z,12.10
2023-04-23T00:58:21.502Z,12.00
2023-04-23T01:00:49.103Z,12.00
2023-04-23T01:03:18.452Z,12.00
2023-04-23T01:05:45.601Z,12.00
2023-04-23T01:08:15.751Z,12.00
2023-04-23T01:10:43.947Z,12.00
2023-04-23T01:13:14.411Z,12.00
2023-04-23T01:15:41.677Z,11.90
2023-04-23T01:18:08.422Z,11.90
2023-04-23T01:20:35.872Z,11.90
2023-04-23T01:23:03.802Z,11.90
2023-04-23T01:25:30.634Z,11.90
2023-04-23T01:27:58.302Z,11.90
2023-04-23T01:30:26.949Z,11.90
2023-04-23T01:32:55.820Z,11.90
2023-04-23T01:35:23.461Z,11.90
2023-04-23T01:37:54.368Z,11.90
2023-04-23T01:40:21.302Z,11.90
2023-04-23T01:42:48.290Z,11.80
2023-04-23T01:45:14.921Z,11.90
2023-04-23T01:47:41.960Z,11.80
2023-04-23T01:50:09.501Z,11.90
2023-04-23T01:52:36.428Z,11.90
2023-04-23T01:55:03.226Z,11.90
2023-04-23T01:57:29.778Z,11.90
2023-04-23T02:00:12.671Z,11.90
2023-04-23T02:02:40.801Z,11.80
2023-04-23T02:05:16.911Z,11.90
2023-04-23T02:07:44.507Z,11.80
2023-04-23T02:10:11.444Z,11.80
2023-04-23T02:12:38.742Z,11.80
2023-04-23T02:15:07.282Z,11.80
2023-04-23T02:17:33.991Z,11.80
2023-04-23T02:20:00.643Z,11.80
2023-04-23T02:22:28.221Z,11.70
2023-04-23T02:24:55.209Z,11.70
2023-04-23T02:27:22.055Z,11.70
2023-04-23T02:29:49.479Z,11.70
2023-04-23T02:32:16.218Z,11.70
2023-04-23T02:34:43.088Z,11.80
2023-04-23T02:37:10.256Z,11.70
2023-04-23T02:39:38.835Z,11.70
2023-04-23T02:42:05.488Z,11.70
2023-04-23T02:44:32.157Z,11.70
2023-04-23T02:46:58.977Z,11.70
2023-04-23T02:49:26.044Z,11.70
2023-04-23T02:51:52.799Z,11.70
2023-04-23T02:54:19.402Z,11.60
2023-04-23T02:56:46.281Z,11.60
2023-04-23T02:59:12.776Z,11.60
2023-04-23T03:01:39.404Z,11.60
2023-04-23T03:04:06.014Z,11.60
2023-04-23T03:06:34.399Z,11.60
2023-04-23T03:09:01.368Z,11.50
2023-04-23T03:11:27.910Z,11.60
2023-04-23T03:13:54.944Z,11.60
2023-04-23T03:16:21.568Z,11.60
2023-04-23T03:18:48.230Z,11.60
2023-04-23T03:21:14.947Z,11.60
2023-04-23T03:23:41.436Z,11.60
2023-04-23T03:26:07.992Z,11.60
2023-04-23T03:28:34.472Z,11.60
2023-04-23T03:31:01.160Z,11.60
2023-04-23T03:33:27.744Z,11.60
2023-04-23T03:35:54.268Z,11.60
2023-04-23T03:38:21.148Z,11.60
2023-04-23T03:40:47.742Z,11.60
2023-04-23T03:43:14.287Z,11.60
2023-04-23T03:45:40.802Z,11.60
2023-04-23T03:48:07.563Z,11.60
2023-04-23T03:50:38.634Z,11.60
2023-04-23T03:53:05.231Z,11.60
2023-04-23T03:55:31.770Z,11.70
2023-04-23T03:58:01.476Z,11.60
2023-04-23T04:00:36.909Z,11.60
2023-04-23T04:03:04.180Z,11.60
2023-04-23T04:05:31.041Z,11.60
2023-04-23T04:07:57.712Z,11.60
2023-04-23T04:10:24.310Z,11.50
2023-04-23T04:12:51.034Z,11.60
2023-04-23T04:15:19.723Z,11.60
2023-04-23T04:17:46.738Z,11.60
2023-04-23T04:20:13.421Z,11.60
2023-04-23T04:22:40.350Z,11.50
2023-04-23T04:25:07.679Z,11.50
2023-04-23T04:27:35.360Z,11.50
2023-04-23T04:30:02.222Z,11.60
2023-04-23T04:32:28.769Z,11.50
2023-04-23T04:34:55.381Z,11.50
2023-04-23T04:37:21.943Z,11.50
2023-04-23T04:39:48.507Z,11.50
2023-04-23T04:42:15.573Z,11.50
2023-04-23T04:44:43.473Z,11.50
2023-04-23T04:47:10.625Z,11.50
2023-04-23T04:49:38.160Z,11.40
2023-04-23T04:52:04.895Z,11.40
2023-04-23T04:54:31.523Z,11.40
2023-04-23T04:56:58.017Z,11.40
2023-04-23T04:59:24.539Z,11.40
2023-04-23T05:01:51.095Z,11.40
2023-04-23T05:04:17.873Z,11.40
2023-04-23T05:06:44.534Z,11.40
2023-04-23T05:09:11.757Z,11.40
2023-04-23T05:11:38.427Z,11.40
2023-04-23T05:14:05.031Z,11.40
2023-04-23T05:16:31.637Z,11.40
2023-04-23T05:18:58.221Z,11.50
2023-04-23T05:21:27.014Z,11.50
2023-04-23T05:23:54.827Z,11.50
2023-04-23T05:26:21.440Z,11.50
2023-04-23T05:28:48.008Z,11.50
2023-04-23T05:31:14.590Z,11.50
2023-04-23T05:33:49.236Z,11.50
2023-04-23T05:36:17.373Z,11.50
2023-04-23T05:38:43.893Z,11.50
2023-04-23T05:41:10.498Z,11.50
2023-04-23T05:43:37.094Z,11.50
2023-04-23T05:46:07.001Z,11.60
2023-04-23T05:48:34.197Z,11.60
2023-04-23T05:51:00.863Z,11.70
2023-04-23T05:53:28.411Z,11.70
2023-04-23T05:55:54.992Z,11.80
2023-04-23T05:58:21.667Z,11.90
2023-04-23T06:00:48.359Z,12.00
2023-04-23T06:03:15.117Z,12.10
2023-04-23T06:05:43.241Z,12.30
2023-04-23T06:08:09.983Z,12.40
2023-04-23T06:10:36.540Z,12.50
2023-04-23T06:13:03.268Z,12.70
2023-04-23T06:15:29.866Z,12.90
2023-04-23T06:17:56.571Z,13.10
2023-04-23T06:20:23.163Z,13.40
2023-04-23T06:22:49.694Z,13.60
2023-04-23T06:25:16.207Z,13.70
2023-04-23T06:27:42.815Z,13.70
2023-04-23T06:30:09.801Z,13.60
2023-04-23T06:32:36.420Z,13.40
2023-04-23T06:35:04.236Z,13.30
2023-04-23T06:37:31.621Z,13.20
2023-04-23T06:39:59.219Z,13.20
2023-04-23T06:42:25.953Z,13.20
2023-04-23T06:44:52.542Z,13.30
2023-04-23T06:47:19.787Z,13.50
2023-04-23T06:49:46.376Z,13.60
2023-04-23T06:52:12.907Z,13.70
2023-04-23T06:54:39.791Z,13.90
2023-04-23T06:57:06.597Z,13.80
2023-04-23T06:59:33.279Z,13.80
2023-04-23T07:01:59.870Z,13.70
2023-04-23T07:04:26.807Z,13.70
2023-04-23T07:06:53.400Z,13.80
2023-04-23T07:09:19.975Z,14.10
2023-04-23T07:11:46.688Z,14.40
2023-04-23T07:14:13.287Z,14.60
2023-04-23T07:16:39.855Z,14.90
2023-04-23T07:19:06.380Z,15.10
2023-04-23T07:21:33.005Z,15.30
2023-04-23T07:24:00.571Z,15.40
2023-04-23T07:26:27.780Z,15.50
2023-04-23T07:28:54.398Z,15.70
2023-04-23T07:31:21.814Z,15.90
2023-04-23T07:33:48.430Z,16.00
2023-04-23T07:36:15.134Z,16.10
2023-04-23T07:38:41.723Z,16.30
2023-04-23T07:41:08.345Z,16.70
2023-04-23T07:43:34.972Z,16.80
2023-04-23T07:46:01.792Z,16.90
2023-04-23T07:48:28.357Z,17.00
2023-04-23T07:50:54.977Z,17.40
2023-04-23T07:53:21.866Z,17.90
2023-04-23T07:55:48.434Z,18.30
2023-04-23T07:58:15.114Z,18.40
2023-04-23T08:00:41.736Z,18.60
2023-04-23T08:03:08.475Z,18.50
2023-04-23T08:05:37.158Z,19.00
2023-04-23T08:08:03.848Z,19.40
2023-04-23T08:10:30.461Z,19.40
2023-04-23T08:12:57.038Z,19.70
2023-04-23T08:15:23.713Z,20.00
2023-04-23T08:17:50.600Z,20.30
2023-04-23T08:20:17.970Z,21.10
2023-04-23T08:22:44.650Z,21.80
2023-04-23T08:25:12.745Z,22.00
2023-04-23T08:27:39.377Z,22.20
2023-04-23T08:30:07.378Z,22.70
2023-04-23T08:32:33.949Z,23.60
2023-04-23T08:35:00.637Z,23.80
2023-04-23T08:37:31.403Z,24.20
2023-04-23T08:39:58.402Z,24.40
2023-04-23T08:42:45.018Z,24.60
2023-04-23T08:45:12.339Z,24.30
2023-04-23T08:47:43.180Z,23.60
2023-04-23T08:50:20.313Z,22.60
2023-04-23T08:52:52.512Z,21.60
2023-04-23T08:55:21.104Z,20.80
2023-04-23T08:57:48.694Z,20.30
2023-04-23T09:00:17.309Z,20.00
2023-04-23T09:02:46.134Z,19.80
2023-04-23T09:05:13.507Z,20.80
2023-04-23T09:07:40.908Z,21.90
2023-04-23T09:10:09.843Z,23.00
2023-04-23T09:12:37.300Z,24.30
2023-04-23T09:15:10.559Z,25.40
2023-04-23T09:17:41.818Z,26.60
2023-04-23T09:20:12.051Z,28.00
2023-04-23T09:22:55.093Z,28.80
2023-04-23T09:25:23.559Z,28.00
2023-04-23T09:27:52.292Z,27.70
2023-04-23T09:30:19.918Z,27.00
2023-04-23T09:32:47.343Z,25.40
2023-04-23T09:35:15.800Z,24.30
2023-04-23T09:37:44.921Z,24.20
2023-04-23T09:40:13.714Z,23.80
2023-04-23T09:42:40.417Z,22.80
2023-04-23T09:45:11.074Z,21.90
2023-04-23T09:47:56.331Z,20.90
2023-04-23T09:50:39.985Z,20.10
2023-04-23T09:53:08.845Z,19.50
2023-04-23T09:55:38.763Z,18.90
2023-04-23T09:58:06.869Z,18.40
2023-04-23T10:00:38.390Z,17.90
2023-04-23T10:03:07.669Z,17.70
2023-04-23T10:05:56.288Z,17.60
2023-04-23T10:08:27.471Z,17.50
2023-04-23T10:11:03.048Z,17.50
2023-04-23T10:13:37.361Z,17.40
2023-04-23T10:16:18.177Z,17.40
2023-04-23T10:18:51.173Z,17.40
2023-04-23T10:21:19.404Z,17.70
2023-04-23T10:23:48.399Z,17.90
2023-04-23T10:26:16.725Z,18.40
2023-04-23T10:28:47.911Z,18.70
2023-04-23T10:31:15.530Z,19.10
2023-04-23T10:33:55.969Z,19.30
2023-04-23T10:36:27.602Z,19.60
2023-04-23T10:38:58.365Z,19.60
2023-04-23T10:41:33.201Z,19.60
2023-04-23T10:43:59.722Z,19.50
2023-04-23T10:46:31.254Z,19.20
2023-04-23T10:49:07.839Z,18.90
2023-04-23T10:54:09.760Z,18.50
2023-04-23T10:56:38.588Z,18.30
2023-04-23T10:59:18.166Z,18.30
2023-04-23T11:01:52.553Z,18.40
2023-04-23T11:04:30.075Z,18.60
2023-04-23T11:07:11.002Z,18.50
2023-04-23T11:09:44.287Z,18.60
2023-04-23T11:12:32.435Z,18.60
2023-04-23T11:14:59.680Z,19.00
2023-04-23T11:17:32.444Z,19.70
2023-04-23T11:20:07.154Z,20.30
2023-04-23T11:22:38.430Z,20.80
2023-04-23T11:25:12.829Z,20.90
2023-04-23T11:27:41.870Z,20.80
2023-04-23T11:30:13.618Z,20.50
2023-04-23T11:32:42.147Z,20.30
2023-04-23T11:35:10.291Z,20.10
2023-04-23T11:37:41.612Z,19.90
2023-04-23T11:40:10.298Z,19.50
2023-04-23T11:42:46.587Z,19.10
2023-04-23T11:45:28.288Z,18.70
2023-04-23T11:48:00.461Z,18.50
2023-04-23T11:50:30.425Z,18.40
2023-04-23T11:52:57.334Z,18.30
2023-04-23T11:55:23.967Z,18.00
2023-04-23T11:57:52.223Z,17.60
2023-04-23T12:00:19.144Z,17.40
2023-04-23T12:02:53.924Z,17.50
2023-04-23T12:05:37.798Z,17.90
2023-04-23T12:08:09.208Z,18.30
2023-04-23T12:10:44.125Z,18.30
2023-04-23T12:13:21.866Z,18.50
2023-04-23T12:15:50.742Z,18.80
2023-04-23T12:18:18.164Z,19.30
2023-04-23T12:20:46.056Z,19.80
2023-04-23T12:23:12.646Z,20.10
2023-04-23T12:25:42.159Z,20.20
2023-04-23T12:28:08.799Z,20.20
2023-04-23T12:30:43.275Z,20.20
2023-04-23T12:33:11.822Z,20.30
2023-04-23T12:35:43.469Z,20.40
2023-04-23T12:38:27.373Z,20.50
2023-04-23T12:40:56.089Z,20.30
2023-04-23T12:43:23.176Z,20.50
2023-04-23T12:45:49.812Z,20.70
2023-04-23T12:48:16.390Z,20.90
2023-04-23T12:50:46.008Z,21.00
2023-04-23T12:53:12.734Z,21.30
2023-04-23T12:55:39.549Z,21.60
2023-04-23T12:58:06.844Z,21.90
2023-04-23T13:00:33.465Z,22.10
2023-04-23T13:03:00.287Z,22.00
2023-04-23T13:05:26.911Z,22.00
2023-04-23T13:07:53.610Z,21.90
2023-04-23T13:10:20.589Z,21.80
2023-04-23T13:12:47.142Z,21.80
2023-04-23T13:15:13.680Z,21.90
2023-04-23T13:17:40.260Z,22.20
2023-04-23T13:20:07.491Z,22.10
2023-04-23T13:22:34.088Z,22.00
2023-04-23T13:25:00.829Z,21.90
2023-04-23T13:27:29.147Z,21.50
2023-04-23T13:29:56.085Z,21.30
2023-04-23T13:32:23.864Z,21.10
2023-04-23T13:34:50.426Z,21.00
2023-04-23T13:37:17.004Z,20.90
2023-04-23T13:39:44.284Z,20.80
2023-04-23T13:42:11.155Z,21.10
2023-04-23T13:44:37.703Z,21.30
2023-04-23T13:47:04.503Z,21.40
2023-04-23T13:49:31.101Z,20.80
2023-04-23T13:51:58.794Z,20.40
2023-04-23T13:54:28.183Z,20.20
2023-04-23T13:56:55.945Z,20.20
2023-04-23T13:59:24.380Z,20.10
2023-04-23T14:01:51.045Z,20.00
2023-04-23T14:04:18.571Z,19.90
2023-04-23T14:06:45.283Z,19.90
2023-04-23T14:09:12.042Z,20.00
2023-04-23T14:11:40.231Z,20.00
2023-04-23T14:14:07.456Z,20.20
2023-04-23T14:16:34.599Z,20.10
2023-04-23T14:19:01.180Z,20.10
2023-04-23T14:21:27.738Z,20.10
2023-04-23T14:24:03.134Z,20.20
2023-04-23T14:26:47.418Z,20.00
2023-04-23T14:29:37.628Z,20.00
2023-04-23T14:32:04.231Z,19.90
2023-04-23T14:34:30.861Z,20.00
2023-04-23T14:36:57.602Z,20.00
2023-04-23T14:39:26.215Z,19.80
2023-04-23T14:41:53.149Z,19.80
2023-04-23T14:44:19.802Z,19.80
2023-04-23T14:46:46.731Z,20.00
2023-04-23T14:49:14.183Z,20.00
2023-04-23T14:51:41.988Z,20.00
2023-04-23T14:54:08.550Z,19.80
2023-04-23T14:56:35.186Z,19.90
2023-04-23T14:59:02.180Z,19.90
2023-04-23T15:01:30.107Z,20.00
2023-04-23T15:03:56.809Z,20.00
2023-04-23T15:06:23.633Z,20.00
2023-04-23T15:08:50.135Z,20.10
2023-04-23T15:11:16.744Z,20.10
2023-04-23T15:13:50.265Z,19.90
2023-04-23T15:16:46.656Z,19.70
2023-04-23T15:19:14.638Z,19.70
2023-04-23T15:21:42.848Z,19.70
2023-04-23T15:24:09.896Z,19.70
2023-04-23T15:26:37.018Z,19.70
2023-04-23T15:29:04.852Z,19.70
2023-04-23T15:31:31.628Z,19.70
2023-04-23T15:33:59.434Z,19.80
2023-04-23T15:36:26.030Z,19.80
2023-04-23T15:38:52.666Z,19.80
2023-04-23T15:41:19.440Z,19.70
2023-04-23T15:43:47.248Z,19.50
2023-04-23T15:46:13.867Z,19.50
2023-04-23T15:48:40.512Z,19.40
2023-04-23T15:51:07.722Z,19.40
2023-04-23T15:53:34.259Z,19.30
2023-04-23T15:56:00.809Z,19.30
2023-04-23T15:58:27.384Z,19.30
2023-04-23T16:00:54.676Z,19.30
2023-04-23T16:03:21.468Z,19.20
2023-04-23T16:05:50.835Z,19.20
2023-04-23T16:08:17.453Z,19.10
2023-04-23T16:10:44.207Z,19.10
2023-04-23T16:13:10.885Z,19.10
2023-04-23T16:15:37.451Z,19.00
2023-04-23T16:18:04.159Z,18.90
2023-04-23T16:20:30.800Z,18.80
2023-04-23T16:22:57.400Z,18.70
2023-04-23T16:25:24.446Z,18.60
2023-04-23T16:27:51.176Z,18.40
2023-04-23T16:30:17.792Z,18.30
2023-04-23T16:32:44.591Z,18.30
2023-04-23T16:35:11.334Z,18.30
2023-04-23T16:37:38.081Z,18.20
2023-04-23T16:40:05.762Z,18.10
2023-04-23T16:42:32.353Z,17.90
2023-04-23T16:44:58.946Z,17.10
2023-04-23T16:47:26.289Z,16.00
2023-04-23T16:49:52.963Z,15.10
2023-04-23T16:52:19.661Z,14.60
2023-04-23T16:54:49.108Z,14.20
2023-04-23T16:57:16.702Z,13.90
2023-04-23T16:59:43.244Z,13.70
2023-04-23T17:02:09.890Z,13.50
2023-04-23T17:04:37.085Z,13.40
2023-04-23T17:07:03.827Z,13.30
2023-04-23T17:09:31.540Z,13.30
2023-04-23T17:11:59.090Z,13.20
2023-04-23T17:14:26.185Z,13.20
2023-04-23T17:16:52.780Z,13.10
2023-04-23T17:19:19.353Z,13.10
2023-04-23T17:21:45.920Z,13.10
2023-04-23T17:24:12.791Z,13.00
2023-04-23T17:26:39.630Z,13.00
2023-04-23T17:29:06.599Z,12.90
2023-04-23T17:31:34.346Z,12.90
2023-04-23T17:34:02.383Z,12.90
2023-04-23T17:36:28.915Z,12.90
2023-04-23T17:38:55.499Z,13.00
2023-04-23T17:41:22.714Z,13.00
2023-04-23T17:43:49.789Z,13.00
2023-04-23T17:46:16.510Z,12.90
2023-04-23T17:48:43.140Z,12.90
2023-04-23T17:51:09.734Z,13.00
2023-04-23T17:53:36.377Z,12.90
2023-04-23T17:56:03.333Z,12.90
2023-04-23T17:58:30.484Z,12.90
2023-04-23T18:00:57.155Z,12.90
2023-04-23T18:03:24.238Z,12.90
2023-04-23T18:05:51.050Z,12.90
2023-04-23T18:08:19.392Z,12.90
2023-04-23T18:10:46.256Z,12.90
2023-04-23T18:13:13.797Z,12.90
2023-04-23T18:15:41.938Z,12.80
2023-04-23T18:18:08.950Z,12.80
2023-04-23T18:20:38.193Z,12.80
2023-04-23T18:23:05.200Z,12.80
2023-04-23T18:25:32.249Z,12.70
2023-04-23T18:27:58.880Z,12.60
2023-04-23T18:30:25.728Z,12.60
2023-04-23T18:33:25.703Z,12.60
2023-04-23T18:35:56.333Z,12.60
2023-04-23T18:38:32.098Z,12.60
2023-04-23T18:41:04.307Z,12.60
2023-04-23T18:43:34.366Z,12.60
2023-04-23T18:46:02.020Z,12.60
2023-04-23T18:48:42.076Z,12.50
2023-04-23T18:51:29.864Z,12.50
2023-04-23T18:53:56.593Z,12.50
2023-04-23T18:56:24.969Z,12.50
2023-04-23T18:58:51.576Z,12.50
2023-04-23T19:01:18.685Z,12.50
2023-04-23T19:03:45.463Z,12.50
2023-04-23T19:06:12.515Z,12.50
2023-04-23T19:08:39.118Z,12.50
2023-04-23T19:11:06.261Z,12.60
2023-04-23T19:13:32.892Z,12.50
2023-04-23T19:15:59.815Z,12.50
2023-04-23T19:18:27.185Z,12.50
2023-04-23T19:20:53.839Z,12.50
2023-04-23T19:23:20.680Z,12.60
2023-04-23T19:25:47.968Z,12.60
2023-04-23T19:28:14.503Z,12.60
2023-04-23T19:30:41.063Z,12.60
2023-04-23T19:33:07.755Z,12.60
2023-04-23T19:35:34.481Z,12.70
2023-04-23T19:38:01.020Z,12.60
2023-04-23T19:40:27.597Z,12.60
2023-04-23T19:42:54.142Z,12.50
2023-04-23T19:45:20.816Z,12.50
2023-04-23T19:47:47.960Z,12.50
2023-04-23T19:50:15.121Z,12.50
2023-04-23T19:52:41.689Z,12.40
2023-04-23T19:55:08.548Z,12.40
2023-04-23T19:57:35.536Z,12.40
2023-04-23T20:00:02.078Z,12.40
2023-04-23T20:02:28.822Z,12.40
2023-04-23T20:04:55.464Z,12.40
2023-04-23T20:07:22.009Z,12.40
2023-04-23T20:09:48.615Z,12.40
2023-04-23T20:12:15.210Z,12.40
2023-04-23T20:14:42.393Z,12.40
2023-04-23T20:17:09.550Z,12.30
2023-04-23T20:19:36.741Z,12.30
2023-04-23T20:22:03.844Z,12.30
2023-04-23T20:24:30.532Z,12.30
2023-04-23T20:26:58.464Z,12.20
2023-04-23T20:29:25.137Z,12.20
2023-04-23T20:31:52.018Z,12.20
2023-04-23T20:34:18.694Z,12.20
2023-04-23T20:36:46.954Z,12.10
2023-04-23T20:39:13.875Z,12.10
2023-04-23T20:41:40.770Z,12.10
2023-04-23T20:44:07.378Z,12.10
2023-04-23T20:46:34.233Z,12.10
2023-04-23T20:49:03.195Z,12.10
2023-04-23T20:51:34.540Z,12.10
2023-04-23T20:54:02.156Z,12.10
2023-04-23T20:56:29.476Z,12.10
2023-04-23T20:58:57.573Z,12.10
2023-04-23T21:01:25.595Z,12.10
2023-04-23T21:03:53.384Z,12.10
2023-04-23T21:06:21.437Z,12.10
2023-04-23T21:08:48.676Z,12.10
2023-04-23T21:11:17.526Z,12.10
2023-04-23T21:13:44.510Z,12.10
2023-04-23T21:16:14.300Z,12.10
2023-04-23T21:18:41.471Z,12.10
2023-04-23T21:21:08.215Z,12.10
2023-04-23T21:23:35.551Z,12.10
2023-04-23T21:26:02.235Z,12.10
2023-04-23T21:28:28.808Z,12.10
2023-04-23T21:30:56.791Z,12.10
2023-04-23T21:33:24.951Z,12.10
2023-04-23T21:35:53.001Z,12.00
2023-04-23T21:38:20.013Z,12.00
2023-04-23T21:40:46.768Z,11.90
2023-04-23T21:43:13.952Z,12.00
2023-04-23T21:45:40.677Z,12.00
2023-04-23T21:48:07.745Z,12.00
2023-04-23T21:50:34.498Z,12.10
2023-04-23T21:53:03.022Z,12.10
2023-04-23T21:55:31.444Z,12.10
2023-04-23T21:58:09.961Z,12.20
2023-04-23T22:00:44.495Z,12.20
2023-04-23T22:03:12.762Z,12.20
2023-04-23T22:05:43.212Z,12.30
2023-04-23T22:08:09.804Z,12.30
2023-04-23T22:10:42.696Z,12.30
2023-04-23T22:13:09.858Z,12.30
2023-04-23T22:15:36.819Z,12.30
2023-04-23T22:18:03.497Z,12.40
2023-04-23T22:20:30.877Z,12.40
2023-04-23T22:22:57.492Z,12.40
2023-04-23T22:25:24.372Z,12.40
2023-04-23T22:27:50.994Z,12.40
2023-04-23T22:30:17.657Z,12.30
2023-04-23T22:32:44.458Z,12.30
2023-04-23T22:35:11.280Z,12.30
2023-04-23T22:37:37.988Z,12.30
2023-04-23T22:40:07.329Z,12.30
2023-04-23T22:42:33.842Z,12.30
2023-04-23T22:45:00.412Z,12.30
2023-04-23T22:47:27.142Z,12.30
2023-04-23T22:49:53.744Z,12.20
2023-04-23T22:52:20.645Z,12.20
2023-04-23T22:54:47.777Z,12.20
2023-04-23T22:57:14.321Z,12.20
2023-04-23T22:59:41.570Z,12.10
2023-04-23T23:02:08.413Z,12.10
2023-04-23T23:04:37.771Z,12.10
2023-04-23T23:07:08.520Z,12.10
2023-04-23T23:09:35.086Z,12.10
2023-04-23T23:12:03.360Z,12.10
2023-04-23T23:14:30.581Z,12.10
2023-04-23T23:16:57.510Z,12.10
2023-04-23T23:19:26.364Z,12.10
2023-04-23T23:21:53.099Z,12.10
2023-04-23T23:24:19.826Z,12.00
2023-04-23T23:26:46.610Z,11.90
2023-04-23T23:29:13.204Z,11.90
2023-04-23T23:31:39.997Z,11.80
2023-04-23T23:34:06.776Z,11.80
2023-04-23T23:36:34.000Z,11.80
2023-04-23T23:39:01.106Z,11.80
2023-04-23T23:41:27.678Z,11.80
2023-04-23T23:43:54.614Z,11.70
2023-04-23T23:46:21.459Z,11.70
2023-04-23T23:48:48.213Z,11.60
2023-04-23T23:51:14.825Z,11.70
2023-04-23T23:53:41.347Z,11.70
2023-04-23T23:56:07.878Z,11.70
2023-04-23T23:58:34.441Z,11.70
